Time;durP1;ratioP1;P1;durP2;ratioP2;P2;SDS_P1;SDS_P2;PMS_P1;PMS_P2;Temp;Humidity;BMP_temperature;BMP_pressure;BME280_temperature;BME280_humidity;BME280_pressure;Samples;Min_cycle;Max_cycle;Signal;HPM_P1;HPM_P2
2023/10/02 00:02:09;;;;;;;11.20;3.20;;;;;;;11.29;100.00;100366.05;109664;1251;57350;-61
2023/10/02 00:04:56;;;;;;;11.40;3.60;;;;;;;11.31;100.00;100364.66;109667;1251;58912;-61
2023/10/02 00:07:44;;;;;;;12.80;3.80;;;;;;;11.31;100.00;100363.98;109605;1251;73897;-63
2023/10/02 00:10:33;;;;;;;12.80;3.60;;;;;;;11.30;100.00;100365.49;109653;1251;67747;-60
2023/10/02 00:13:21;;;;;;;10.90;3.70;;;;;;;11.29;100.00;100359.15;109602;1251;73515;-62
2023/10/02 00:16:09;;;;;;;12.90;3.50;;;;;;;11.28;100.00;100359.97;109643;1251;60113;-62
2023/10/02 00:19:18;;;;;;;11.70;3.40;;;;;;;11.27;100.00;100360.71;109696;1251;58534;-62
2023/10/02 00:22:09;;;;;;;12.10;3.60;;;;;;;11.26;100.00;100363.09;109640;1251;73100;-61
2023/10/02 00:25:00;;;;;;;11.80;3.70;;;;;;;11.25;100.00;100360.86;109611;1251;67933;-62
2023/10/02 00:27:51;;;;;;;9.80;3.20;;;;;;;11.24;100.00;100358.06;109623;1251;72849;-62
2023/10/02 00:30:42;;;;;;;10.20;3.70;;;;;;;11.22;100.00;100352.34;109670;1251;57971;-61
2023/10/02 00:33:31;;;;;;;11.20;3.60;;;;;;;11.21;100.00;100351.91;109676;1251;58346;-61
2023/10/02 00:36:19;;;;;;;13.60;4.00;;;;;;;11.20;100.00;100353.92;109615;1251;73357;-61
2023/10/02 00:39:25;;;;;;;17.60;5.00;;;;;;;11.18;100.00;100358.39;109597;1251;68680;-61
2023/10/02 00:42:28;;;;;;;12.00;3.80;;;;;;;11.15;100.00;100358.04;109647;1251;73396;-61
2023/10/02 00:45:18;;;;;;;13.10;4.10;;;;;;;11.14;100.00;100355.48;109616;1251;60621;-64
2023/10/02 00:51:12;;;;;;;12.30;4.40;;;;;;;11.05;100.00;100344.56;109643;1251;72072;-61
2023/10/02 00:54:23;;;;;;;15.40;3.60;;;;;;;11.07;100.00;100345.69;109634;1251;68653;-61
2023/10/02 00:57:16;;;;;;;12.00;3.70;;;;;;;11.06;100.00;100344.00;109581;1253;72230;-61
2023/10/02 01:00:17;;;;;;;12.20;3.60;;;;;;;11.05;100.00;100346.72;109489;1252;60731;-63
2023/10/02 01:03:09;;;;;;;11.80;3.90;;;;;;;11.04;100.00;100350.16;109413;1252;58729;-63
2023/10/02 01:05:58;;;;;;;17.30;4.40;;;;;;;11.03;100.00;100345.64;109257;1252;72886;-59
2023/10/02 01:08:49;;;;;;;10.50;3.90;;;;;;;11.01;100.00;100345.95;109553;1252;68090;-61
2023/10/02 01:11:39;;;;;;;14.90;3.90;;;;;;;11.00;100.00;100348.34;109527;1252;72764;-62
2023/10/02 01:14:47;;;;;;;13.30;4.30;;;;;;;10.99;100.00;100346.48;109527;1252;58027;-65
2023/10/02 01:17:37;;;;;;;12.10;3.80;;;;;;;10.97;100.00;100348.91;109556;1252;60441;-62
2023/10/02 01:20:35;;;;;;;12.60;3.80;;;;;;;10.96;100.00;100347.45;109518;1252;73384;-62
2023/10/02 01:23:30;;;;;;;12.80;4.20;;;;;;;10.99;100.00;100358.74;109563;1252;67958;-62
2023/10/02 01:26:18;;;;;;;15.60;4.30;;;;;;;11.02;100.00;100363.27;109480;1253;72797;-61
2023/10/02 01:29:07;;;;;;;15.20;4.20;;;;;;;11.07;100.00;100361.14;109443;1253;59595;-63
2023/10/02 01:31:54;;;;;;;11.50;3.80;;;;;;;11.15;100.00;100356.27;109538;1252;59669;-63
2023/10/02 01:34:42;;;;;;;12.40;4.30;;;;;;;11.24;100.00;100356.45;109555;1253;72218;-62
2023/10/02 01:37:36;;;;;;;16.30;3.90;;;;;;;11.36;100.00;100358.27;109469;1252;66896;-61
2023/10/02 01:40:33;;;;;;;13.10;5.10;;;;;;;11.46;100.00;100358.37;109553;1252;72637;-62
2023/10/02 01:43:26;;;;;;;10.60;3.80;;;;;;;11.56;100.00;100359.75;109401;1252;59881;-61
2023/10/02 01:46:18;;;;;;;14.00;4.00;;;;;;;11.66;100.00;100364.83;109497;1253;58701;-62
2023/10/02 01:49:24;;;;;;;14.50;4.20;;;;;;;11.75;100.00;100367.55;109561;1252;72190;-63
2023/10/02 01:52:13;;;;;;;12.90;3.70;;;;;;;11.83;100.00;100363.53;109452;1252;68848;-62
2023/10/02 01:55:00;;;;;;;14.10;4.00;;;;;;;11.89;100.00;100360.41;109456;1257;73766;-61
2023/10/02 01:57:49;;;;;;;13.00;4.10;;;;;;;11.94;100.00;100357.50;109523;1252;58335;-63
2023/10/02 02:00:36;;;;;;;15.30;4.50;;;;;;;11.99;100.00;100355.94;109500;1252;60264;-62
2023/10/02 02:03:28;;;;;;;14.50;4.50;;;;;;;12.03;100.00;100354.02;109509;1253;74010;-62
2023/10/02 02:06:22;;;;;;;13.30;3.90;;;;;;;12.06;100.00;100351.59;109607;1252;69121;-62
2023/10/02 02:09:22;;;;;;;11.80;3.60;;;;;;;12.09;100.00;100347.64;109400;1252;71378;-62
2023/10/02 02:12:10;;;;;;;12.20;3.70;;;;;;;12.12;100.00;100350.85;109523;1253;59682;-62
2023/10/02 02:15:04;;;;;;;13.10;4.40;;;;;;;12.13;100.00;100349.47;109413;1255;61135;-61
2023/10/02 02:17:52;;;;;;;10.40;3.80;;;;;;;12.14;100.00;100351.56;109463;1252;74033;-62
2023/10/02 02:20:58;;;;;;;11.90;3.80;;;;;;;12.15;100.00;100355.73;109565;1252;67841;-61
2023/10/02 02:23:46;;;;;;;12.80;4.00;;;;;;;12.18;100.00;100358.35;109556;1253;72482;-60
2023/10/02 02:26:37;;;;;;;16.70;4.20;;;;;;;12.20;100.00;100360.63;109563;1252;59731;-61
2023/10/02 02:29:26;;;;;;;10.80;3.70;;;;;;;12.23;100.00;100358.42;109553;1253;59494;-62
2023/10/02 02:32:19;;;;;;;15.40;3.90;;;;;;;12.26;100.00;100360.86;109525;1252;73792;-66
2023/10/02 02:35:09;;;;;;;13.60;4.10;;;;;;;12.29;100.00;100356.80;109528;1253;67945;-60
2023/10/02 02:37:57;;;;;;;12.60;3.90;;;;;;;12.31;100.00;100355.54;109558;1253;71436;-62
2023/10/02 02:41:04;;;;;;;11.40;3.40;;;;;;;12.29;100.00;100352.13;109525;1252;57794;-61
2023/10/02 02:43:52;;;;;;;14.50;4.30;;;;;;;12.33;100.00;100354.66;109545;1252;60238;-63
2023/10/02 02:46:53;;;;;;;11.60;3.60;;;;;;;12.33;100.00;100354.98;109528;1251;73880;-62
2023/10/02 02:49:50;;;;;;;13.50;4.00;;;;;;;12.35;100.00;100347.59;109565;1253;67918;-61
2023/10/02 02:52:38;;;;;;;12.20;4.10;;;;;;;12.36;100.00;100351.75;109634;1251;73697;-65
2023/10/02 02:55:26;;;;;;;12.30;3.90;;;;;;;12.39;100.00;100349.88;109570;1253;59634;-62
2023/10/02 02:58:14;;;;;;;12.80;4.00;;;;;;;12.42;100.00;100342.39;109535;1253;61425;-64
2023/10/02 03:01:06;;;;;;;10.00;3.70;;;;;;;12.45;100.00;100346.02;109573;1252;73126;-62
2023/10/02 03:03:56;;;;;;;11.40;3.60;;;;;;;12.49;100.00;100343.95;109536;1251;67612;-62
2023/10/02 03:06:44;;;;;;;10.70;3.90;;;;;;;12.50;100.00;100341.52;109625;1251;72863;-62
2023/10/02 03:09:34;;;;;;;11.30;3.80;;;;;;;12.52;100.00;100343.16;109644;1251;59341;-65
2023/10/02 03:12:24;;;;;;;11.70;3.90;;;;;;;12.54;100.00;100345.66;109663;1255;60359;-65
2023/10/02 03:15:14;;;;;;;13.70;4.00;;;;;;;12.56;100.00;100345.27;109666;1251;73057;-63
2023/10/02 03:18:01;;;;;;;14.10;3.10;;;;;;;12.60;100.00;100348.32;109689;1251;68871;-65
2023/10/02 03:20:50;;;;;;;10.60;3.70;;;;;;;12.64;100.00;100348.77;109608;1253;71308;-65
2023/10/02 03:23:39;;;;;;;11.50;3.50;;;;;;;12.67;100.00;100339.79;109539;1252;57288;-62
2023/10/02 03:29:22;;;;;;;10.60;4.00;;;;;;;12.71;99.43;100340.34;109382;1253;74195;-62
2023/10/02 03:32:11;;;;;;;11.60;3.30;;;;;;;12.73;99.45;100342.88;109553;1253;68714;-62
2023/10/02 03:35:02;;;;;;;11.90;3.60;;;;;;;12.75;99.30;100341.83;109541;1253;72996;-63
2023/10/02 03:37:51;;;;;;;11.20;3.50;;;;;;;12.76;99.15;100345.29;109492;1253;60767;-61
2023/10/02 03:40:45;;;;;;;11.90;3.60;;;;;;;12.77;99.08;100346.04;109574;1253;61272;-62
2023/10/02 03:43:42;;;;;;;9.80;3.30;;;;;;;12.81;99.04;100342.58;109571;1253;72920;-62
2023/10/02 03:46:36;;;;;;;13.20;3.60;;;;;;;12.85;98.96;100346.18;109555;1253;67620;-63
2023/10/02 03:49:24;;;;;;;13.10;3.70;;;;;;;12.87;98.78;100346.69;109478;1252;71380;-66
2023/10/02 03:52:19;;;;;;;9.80;3.10;;;;;;;12.89;98.58;100342.23;109512;1253;58336;-65
2023/10/02 03:55:26;;;;;;;11.50;3.30;;;;;;;12.91;98.37;100344.92;109399;1253;58196;-64
2023/10/02 03:58:16;;;;;;;10.40;3.50;;;;;;;12.92;98.42;100348.98;109517;1252;73743;-65
2023/10/02 04:01:08;;;;;;;11.90;3.70;;;;;;;12.91;98.32;100347.27;109533;1253;67916;-63
2023/10/02 04:04:19;;;;;;;11.30;3.60;;;;;;;12.91;98.24;100344.05;109506;1253;72420;-65
2023/10/02 04:07:04;;;;;;;11.80;4.20;;;;;;;12.92;98.37;100337.42;109526;1252;58349;-65
2023/10/02 04:09:55;;;;;;;10.70;3.80;;;;;;;12.93;98.36;100332.44;109559;1252;59150;-65
2023/10/02 04:12:50;;;;;;;15.10;4.00;;;;;;;12.96;98.17;100334.22;109547;1252;71550;-65
2023/10/02 04:15:43;;;;;;;13.80;3.90;;;;;;;12.98;98.07;100332.45;109543;1253;67870;-64
2023/10/02 04:18:47;;;;;;;13.40;4.20;;;;;;;12.99;97.82;100334.48;109547;1253;73524;-64
2023/10/02 04:21:36;;;;;;;12.40;3.60;;;;;;;12.98;98.01;100330.30;109524;1253;57858;-64
2023/10/02 04:24:24;;;;;;;11.30;4.30;;;;;;;12.94;97.95;100332.02;109439;1253;61347;-64
2023/10/02 04:27:18;;;;;;;11.80;4.60;;;;;;;12.91;98.16;100327.46;109324;1253;74047;-67
2023/10/02 04:32:59;;;;;;;11.20;4.50;;;;;;;12.89;98.27;100333.73;109498;1252;72390;-64
2023/10/02 04:35:57;;;;;;;14.10;4.80;;;;;;;12.83;98.67;100324.23;109510;1253;59549;-66
2023/10/02 04:38:49;;;;;;;12.20;4.70;;;;;;;12.79;98.61;100322.41;109350;1253;60068;-63
2023/10/02 04:42:09;;;;;;;11.80;4.20;;;;;;;12.75;99.06;100319.71;109469;1252;73083;-65
2023/10/02 04:44:48;;;;;;;12.60;4.30;;;;;;;12.71;99.20;100319.14;109475;1253;67831;-63
2023/10/02 04:47:40;;;;;;;12.20;3.90;;;;;;;12.69;99.47;100317.38;109455;1253;72735;-65
2023/10/02 04:59:07;;;;;;;15.60;4.40;;;;;;;12.60;100.00;100324.54;109504;1253;67627;-64
2023/10/02 05:02:17;;;;;;;12.30;4.30;;;;;;;12.58;100.00;100327.14;109476;1252;73037;-64
2023/10/02 05:05:08;;;;;;;11.70;4.40;;;;;;;12.56;100.00;100327.46;109509;1253;58175;-65
2023/10/02 05:07:57;;;;;;;11.30;3.90;;;;;;;12.55;100.00;100332.20;109386;1253;60725;-65
2023/10/02 05:10:57;;;;;;;13.60;4.10;;;;;;;12.54;100.00;100328.19;109454;1253;73181;-64
2023/10/02 05:16:46;;;;;;;13.90;4.60;;;;;;;12.58;100.00;100323.77;109505;1253;72698;-62
2023/10/02 05:19:56;;;;;;;14.60;4.50;;;;;;;12.61;100.00;100319.95;109279;1253;58255;-66
2023/10/02 05:22:57;;;;;;;12.70;5.00;;;;;;;12.65;100.00;100319.16;109518;1253;58751;-65
2023/10/02 05:25:47;;;;;;;11.60;4.20;;;;;;;12.70;100.00;100323.73;109489;1252;72839;-64
2023/10/02 05:28:44;;;;;;;11.40;4.30;;;;;;;12.73;100.00;100326.64;109556;1253;66288;-66
2023/10/02 05:31:36;;;;;;;11.30;4.50;;;;;;;12.77;99.83;100326.70;109504;1253;71565;-68
2023/10/02 05:34:25;;;;;;;14.20;4.90;;;;;;;12.81;99.54;100324.23;109461;1252;59747;-65
2023/10/02 05:37:13;;;;;;;11.60;4.30;;;;;;;12.84;99.26;100316.84;109504;1253;58711;-68
2023/10/02 05:45:56;;;;;;;12.70;5.40;;;;;;;12.97;98.99;100315.05;109533;1253;72456;-64
2023/10/02 05:48:43;;;;;;;17.00;5.00;;;;;;;13.02;98.57;100321.94;109463;1253;60788;-65
2023/10/02 05:51:47;;;;;;;16.50;5.20;;;;;;;13.05;98.25;100315.29;109597;1252;60268;-62
2023/10/02 05:54:47;;;;;;;13.70;4.80;;;;;;;13.08;98.14;100313.23;109467;1253;72992;-69
2023/10/02 05:57:36;;;;;;;14.10;4.60;;;;;;;13.12;98.08;100307.40;109322;1253;67828;-67
2023/10/02 06:00:26;;;;;;;12.10;4.40;;;;;;;13.16;97.73;100313.82;109388;1253;71626;-69
2023/10/02 06:03:15;;;;;;;13.30;4.60;;;;;;;13.22;97.52;100317.26;109469;1252;59325;-65
2023/10/02 06:06:18;;;;;;;13.20;4.80;;;;;;;13.25;97.15;100313.05;109357;1253;61300;-67
2023/10/02 06:09:16;;;;;;;11.90;4.30;;;;;;;13.32;96.86;100316.39;109217;1253;71755;-67
2023/10/02 06:12:05;;;;;;;15.70;5.10;;;;;;;13.37;96.54;100314.77;109513;1252;68658;-63
2023/10/02 06:14:54;;;;;;;12.60;4.80;;;;;;;13.42;96.54;100318.09;109449;1253;72407;-65
2023/10/02 06:17:43;;;;;;;13.30;5.10;;;;;;;13.46;96.25;100318.64;109512;1253;59260;-67
2023/10/02 06:20:31;;;;;;;16.90;5.20;;;;;;;13.51;96.01;100317.52;109513;1253;58977;-63
2023/10/02 06:23:22;;;;;;;15.90;5.10;;;;;;;13.56;95.78;100316.52;109296;1253;73724;-64
2023/10/02 06:26:11;;;;;;;14.90;4.90;;;;;;;13.62;95.56;100320.65;109415;1253;66566;-66
2023/10/02 06:29:16;;;;;;;15.00;4.50;;;;;;;13.67;95.10;100323.63;109391;1253;73017;-64
2023/10/02 06:32:09;;;;;;;13.50;4.80;;;;;;;13.70;95.00;100322.99;109273;1253;58241;-64
2023/10/02 06:35:00;;;;;;;15.90;5.50;;;;;;;13.74;94.47;100322.97;109303;1253;60490;-64
2023/10/02 06:37:49;;;;;;;12.80;5.00;;;;;;;13.78;94.29;100322.25;109316;1253;73778;-68
2023/10/02 06:40:37;;;;;;;15.40;4.80;;;;;;;13.82;93.75;100327.28;109523;1253;66284;-65
2023/10/02 06:43:30;;;;;;;16.70;5.30;;;;;;;13.87;93.42;100335.20;109425;1252;72981;-66
2023/10/02 06:46:19;;;;;;;15.70;4.80;;;;;;;13.93;92.85;100334.15;109528;1253;59340;-64
2023/10/02 06:49:15;;;;;;;14.40;4.90;;;;;;;14.02;91.97;100328.09;109559;1253;59044;-64
2023/10/02 06:52:12;;;;;;;15.60;5.30;;;;;;;14.11;91.36;100329.25;109294;1253;71435;-64
2023/10/02 06:55:03;;;;;;;16.40;5.20;;;;;;;14.15;90.42;100331.34;109486;1253;68639;-65
2023/10/02 06:57:54;;;;;;;13.60;4.60;;;;;;;14.21;89.83;100330.88;109517;1252;72753;-65
2023/10/02 07:01:01;;;;;;;14.90;5.20;;;;;;;14.24;89.74;100328.61;109515;1252;57353;-64
2023/10/02 07:03:54;;;;;;;16.80;5.40;;;;;;;14.27;89.70;100326.74;109416;1253;60268;-64
2023/10/02 07:06:44;;;;;;;15.90;4.90;;;;;;;14.31;89.50;100334.02;109478;1252;72018;-62
2023/10/02 07:09:37;;;;;;;14.60;5.30;;;;;;;14.37;89.36;100329.29;109564;1253;67704;-65
2023/10/02 07:12:27;;;;;;;16.00;5.20;;;;;;;14.41;88.90;100323.02;109572;1253;72744;-63
2023/10/02 07:15:22;;;;;;;14.90;4.70;;;;;;;14.46;88.85;100317.14;109189;1253;57360;-63
2023/10/02 07:18:12;;;;;;;14.40;4.30;;;;;;;14.56;88.35;100318.41;109496;1253;60169;-65
2023/10/02 07:21:00;;;;;;;16.20;5.50;;;;;;;14.68;87.36;100315.80;109508;1253;73839;-64
2023/10/02 07:23:49;;;;;;;13.20;4.10;;;;;;;14.80;87.04;100307.36;109328;1253;66743;-63
2023/10/02 07:27:40;;;;;;;12.00;4.90;;;;;;;14.88;86.10;100311.30;109337;1253;72467;-63
2023/10/02 07:29:55;;;;;;;12.90;5.40;;;;;;;14.98;85.79;100307.35;109417;1253;58385;-65
2023/10/02 07:32:43;;;;;;;18.10;6.10;;;;;;;15.14;85.38;100311.16;109518;1253;59017;-62
2023/10/02 07:35:31;;;;;;;15.60;5.50;;;;;;;15.36;84.79;100315.27;109556;1252;72670;-63
2023/10/02 07:38:30;;;;;;;14.40;5.00;;;;;;;15.52;83.66;100313.02;109471;1253;67776;-63
2023/10/02 07:41:28;;;;;;;14.40;5.30;;;;;;;15.72;82.70;100313.83;109482;1253;71387;-63
2023/10/02 07:44:16;;;;;;;11.80;4.80;;;;;;;16.05;80.87;100316.84;109389;1253;57989;-64
2023/10/02 07:47:16;;;;;;;12.20;4.80;;;;;;;16.20;80.11;100312.98;109526;1253;57815;-63
2023/10/02 07:50:23;;;;;;;17.80;6.40;;;;;;;16.34;78.74;100304.73;109464;1252;72148;-64
2023/10/02 07:53:12;;;;;;;13.50;4.60;;;;;;;16.58;77.21;100304.47;109543;1253;68677;-62
2023/10/02 07:56:02;;;;;;;14.00;4.80;;;;;;;16.98;76.82;100301.60;109498;1253;72596;-63
2023/10/02 07:58:55;;;;;;;13.60;4.40;;;;;;;17.58;73.76;100313.40;109299;1253;57235;-64
2023/10/02 08:01:44;;;;;;;11.90;4.10;;;;;;;18.06;71.99;100318.17;109442;1253;58755;-63
2023/10/02 08:04:45;;;;;;;14.50;4.50;;;;;;;18.29;69.80;100315.35;109476;1252;73755;-63
2023/10/02 08:07:34;;;;;;;11.30;4.20;;;;;;;18.34;70.48;100313.98;109522;1253;67838;-65
2023/10/02 08:10:48;;;;;;;10.40;4.00;;;;;;;18.23;70.52;100315.73;109497;1253;71580;-68
2023/10/02 08:13:39;;;;;;;10.80;3.80;;;;;;;18.04;71.19;100316.05;109380;1253;58672;-63
2023/10/02 08:16:27;;;;;;;12.20;4.10;;;;;;;17.83;72.44;100312.63;109384;1253;58732;-63
2023/10/02 08:19:14;;;;;;;13.50;4.30;;;;;;;17.91;73.12;100316.11;109494;1252;72908;-65
2023/10/02 08:22:05;;;;;;;14.10;4.00;;;;;;;18.40;72.50;100317.29;109462;1253;68902;-63
2023/10/02 08:24:55;;;;;;;9.40;3.50;;;;;;;19.13;72.00;100306.40;109456;1253;72786;-64
2023/10/02 08:27:45;;;;;;;12.80;4.20;;;;;;;20.39;67.64;100299.75;109527;1253;57547;-67
2023/10/02 08:30:36;;;;;;;9.90;3.80;;;;;;;22.07;61.91;100296.73;109542;1253;58681;-66
2023/10/02 08:33:24;;;;;;;11.30;3.80;;;;;;;22.13;59.27;100295.81;109513;1257;72191;-66
2023/10/02 08:36:32;;;;;;;9.20;4.00;;;;;;;22.33;58.14;100288.98;109453;1253;68790;-67
2023/10/02 08:39:22;;;;;;;8.10;3.10;;;;;;;23.31;56.71;100280.75;109335;1253;73810;-63
2023/10/02 08:42:10;;;;;;;8.50;2.80;;;;;;;24.46;52.78;100281.16;109482;1254;57285;-64
2023/10/02 08:45:00;;;;;;;8.20;3.10;;;;;;;24.37;52.01;100277.91;109476;1253;59994;-64
2023/10/02 08:47:48;;;;;;;8.10;3.20;;;;;;;24.09;52.44;100277.52;109545;1252;71455;-63
2023/10/02 08:50:37;;;;;;;9.60;3.40;;;;;;;24.31;52.19;100279.56;109543;1252;67297;-66
2023/10/02 08:53:26;;;;;;;8.70;2.80;;;;;;;25.12;51.07;100278.92;109480;1255;73727;-64
2023/10/02 08:56:23;;;;;;;7.40;2.20;;;;;;;24.81;51.39;100283.86;109566;1253;57316;-64
2023/10/02 08:59:27;;;;;;;7.90;2.50;;;;;;;23.75;53.78;100285.67;109452;1255;61525;-63
2023/10/02 09:02:16;;;;;;;7.70;2.30;;;;;;;22.79;56.77;100287.58;109517;1253;72689;-64
2023/10/02 09:05:09;;;;;;;7.40;2.20;;;;;;;22.08;59.62;100294.70;109444;1253;69060;-63
2023/10/02 09:08:01;;;;;;;8.10;2.60;;;;;;;21.41;62.53;100299.75;109541;1253;73886;-63
2023/10/02 09:10:58;;;;;;;8.00;2.40;;;;;;;20.88;64.68;100305.11;109485;1252;58561;-62
2023/10/02 09:14:43;;;;;;;9.00;2.60;;;;;;;20.42;66.76;100306.85;109349;1252;58854;-64
2023/10/02 09:17:19;;;;;;;7.60;2.80;;;;;;;19.94;68.90;100303.84;109486;1253;73009;-64
2023/10/02 09:20:11;;;;;;;7.20;2.50;;;;;;;19.56;70.54;100305.82;109389;1254;66747;-62
2023/10/02 09:23:08;;;;;;;8.80;2.90;;;;;;;19.28;71.82;100307.08;109477;1254;72543;-64
2023/10/02 09:26:16;;;;;;;9.70;2.90;;;;;;;19.11;72.98;100308.34;109447;1253;58697;-63
2023/10/02 09:29:06;;;;;;;8.20;3.10;;;;;;;18.87;75.00;100311.67;109480;1254;61126;-65
2023/10/02 09:32:03;;;;;;;9.10;3.40;;;;;;;18.73;76.03;100308.36;109515;1253;73153;-63
2023/10/02 09:35:10;;;;;;;9.40;3.50;;;;;;;18.66;77.22;100306.95;109488;1252;66482;-64
2023/10/02 09:38:23;;;;;;;8.80;3.10;;;;;;;18.66;77.32;100302.66;109478;1253;71062;-62
2023/10/02 09:41:15;;;;;;;10.60;3.50;;;;;;;18.72;77.58;100299.84;109459;1253;57701;-62
2023/10/02 09:44:15;;;;;;;9.10;3.80;;;;;;;18.87;77.48;100290.00;109527;1256;60370;-63
2023/10/02 09:47:03;;;;;;;9.70;3.80;;;;;;;19.23;76.76;100288.33;109270;1254;73751;-65
2023/10/02 09:50:23;;;;;;;8.50;3.10;;;;;;;20.01;74.57;100290.14;109509;1252;69011;-63
2023/10/02 09:53:16;;;;;;;10.90;3.70;;;;;;;20.05;73.61;100286.75;109484;1253;73707;-64
2023/10/02 09:56:17;;;;;;;9.70;3.40;;;;;;;20.01;74.37;100283.98;109289;1252;57997;-63
2023/10/02 09:59:18;;;;;;;10.40;3.90;;;;;;;19.75;75.57;100287.28;109492;1252;60482;-65
2023/10/02 10:02:07;;;;;;;9.30;3.80;;;;;;;19.46;77.12;100288.02;109487;1252;72751;-65
2023/10/02 10:08:18;;;;;;;10.00;3.40;;;;;;;19.15;79.80;100281.70;109524;1254;72422;-63
2023/10/02 10:11:18;;;;;;;15.50;4.30;;;;;;;19.17;79.87;100279.52;109480;1253;58018;-64
2023/10/02 10:14:42;;;;;;;8.30;3.30;;;;;;;19.55;79.14;100268.11;109475;1254;58636;-63
2023/10/02 10:17:49;;;;;;;9.60;3.50;;;;;;;19.98;77.00;100273.05;109478;1254;72787;-65
2023/10/02 10:20:38;;;;;;;9.10;3.70;;;;;;;19.83;76.67;100274.31;109540;1252;67947;-63
2023/10/02 10:23:34;;;;;;;9.40;3.80;;;;;;;19.77;76.75;100270.46;109495;1252;73478;-62
2023/10/02 10:26:37;;;;;;;9.10;3.80;;;;;;;19.80;76.97;100274.35;109436;1253;58805;-64
2023/10/02 10:29:42;;;;;;;9.70;4.00;;;;;;;19.78;76.71;100272.70;109484;1254;61516;-63
2023/10/02 10:32:31;;;;;;;10.90;4.30;;;;;;;19.51;77.30;100276.98;109473;1253;71915;-62
2023/10/02 10:35:35;;;;;;;10.10;4.20;;;;;;;19.51;77.77;100277.73;109496;1253;68957;-64
2023/10/02 10:38:25;;;;;;;12.80;5.20;;;;;;;19.60;77.21;100273.83;109471;1252;70701;-63
2023/10/02 10:41:35;;;;;;;11.20;4.90;;;;;;;19.53;77.39;100274.38;109433;1253;57651;-63
2023/10/02 10:44:32;;;;;;;12.30;5.20;;;;;;;19.61;77.46;100276.08;109552;1254;61601;-63
2023/10/02 10:47:39;;;;;;;12.40;5.00;;;;;;;19.66;77.15;100275.34;109408;1253;73761;-63
2023/10/02 10:50:29;;;;;;;15.10;6.20;;;;;;;19.64;76.95;100268.34;109440;1253;67438;-63
2023/10/02 10:53:28;;;;;;;12.90;5.60;;;;;;;19.66;76.87;100266.15;109420;1253;72573;-63
2023/10/02 10:56:17;;;;;;;12.50;5.50;;;;;;;19.67;77.18;100266.42;109510;1253;57915;-63
2023/10/02 10:59:11;;;;;;;13.30;5.40;;;;;;;19.73;76.79;100263.55;109502;1253;60221;-64
2023/10/02 11:02:16;;;;;;;18.50;6.80;;;;;;;19.59;76.94;100257.77;109417;1254;72736;-64
2023/10/02 11:05:04;;;;;;;16.20;6.20;;;;;;;19.50;77.22;100251.55;109418;1254;67677;-63
2023/10/02 11:07:55;;;;;;;14.80;6.20;;;;;;;19.51;77.41;100246.69;109444;1253;71045;-65
2023/10/02 11:10:46;;;;;;;14.70;6.10;;;;;;;19.70;77.20;100248.80;109544;1254;58021;-62
2023/10/02 11:13:51;;;;;;;14.10;6.00;;;;;;;20.26;75.70;100241.89;109406;1253;60290;-65
2023/10/02 11:16:57;;;;;;;15.90;6.90;;;;;;;21.36;72.34;100240.96;109480;1253;70736;-62
2023/10/02 11:19:46;;;;;;;17.20;7.00;;;;;;;21.71;68.15;100236.57;109450;1253;67572;-63
2023/10/02 11:22:51;;;;;;;16.90;6.70;;;;;;;21.76;68.13;100237.21;109518;1254;71682;-63
2023/10/02 11:25:51;;;;;;;13.70;5.60;;;;;;;21.69;68.11;100233.79;109491;1253;58738;-64
2023/10/02 11:28:49;;;;;;;13.20;5.70;;;;;;;21.42;68.55;100234.27;109532;1253;61067;-62
2023/10/02 11:31:45;;;;;;;14.20;6.00;;;;;;;20.87;70.25;100234.65;109463;1253;72970;-63
2023/10/02 11:34:41;;;;;;;17.60;6.30;;;;;;;20.47;71.71;100230.45;109535;1253;68860;-64
2023/10/02 11:37:29;;;;;;;16.40;5.90;;;;;;;20.32;72.58;100223.48;109476;1253;71399;-63
2023/10/02 11:40:17;;;;;;;14.10;6.10;;;;;;;20.20;73.30;100222.04;109381;1253;58746;-64
2023/10/02 11:43:04;;;;;;;15.00;6.30;;;;;;;20.00;73.75;100229.30;109510;1253;60438;-63
2023/10/02 11:45:52;;;;;;;16.20;7.00;;;;;;;19.83;74.59;100228.44;109483;1253;72730;-63
2023/10/02 11:48:40;;;;;;;16.40;6.40;;;;;;;19.62;74.98;100225.91;109445;1253;67708;-63
2023/10/02 11:51:31;;;;;;;18.20;6.40;;;;;;;19.47;75.66;100223.33;109437;1254;72416;-64
2023/10/02 11:54:18;;;;;;;16.10;6.10;;;;;;;19.35;76.28;100224.81;109495;1253;58401;-64
2023/10/02 11:57:12;;;;;;;16.50;5.70;;;;;;;19.18;76.80;100220.23;109520;1253;60387;-65
2023/10/02 12:00:08;;;;;;;15.80;6.40;;;;;;;19.07;77.62;100226.89;109359;1253;71826;-65
2023/10/02 12:02:59;;;;;;;18.80;6.50;;;;;;;18.97;78.23;100220.23;109545;1253;66435;-64
2023/10/02 12:05:50;;;;;;;16.30;5.50;;;;;;;18.96;78.32;100219.09;109478;1253;72573;-64
2023/10/02 12:08:38;;;;;;;16.90;6.30;;;;;;;18.93;78.71;100222.15;109388;1253;57835;-63
2023/10/02 12:11:28;;;;;;;18.50;6.80;;;;;;;18.82;79.44;100219.80;109483;1252;61291;-62
2023/10/02 12:14:16;;;;;;;15.90;6.60;;;;;;;18.77;80.06;100220.28;109368;1253;72977;-64
2023/10/02 12:17:04;;;;;;;16.10;6.60;;;;;;;18.72;80.75;100219.31;109470;1253;66705;-63
2023/10/02 12:19:52;;;;;;;15.80;6.50;;;;;;;18.73;81.29;100219.91;109470;1253;72910;-66
2023/10/02 12:22:40;;;;;;;15.60;6.60;;;;;;;18.73;82.10;100221.57;109467;1253;59339;-63
2023/10/02 12:25:28;;;;;;;16.30;6.70;;;;;;;18.67;83.20;100222.41;109477;1253;58709;-67
2023/10/02 12:28:17;;;;;;;16.50;6.60;;;;;;;18.53;84.57;100228.20;109389;1253;72738;-64
2023/10/02 12:31:13;;;;;;;15.30;6.30;;;;;;;18.37;86.09;100228.27;109434;1252;69019;-64
2023/10/02 12:34:01;;;;;;;16.70;6.90;;;;;;;18.22;87.49;100223.33;109465;1253;72916;-64
2023/10/02 12:36:50;;;;;;;14.80;6.20;;;;;;;18.18;87.87;100224.75;109482;1253;59609;-63
2023/10/02 12:39:38;;;;;;;17.50;6.90;;;;;;;18.21;88.72;100214.82;109508;1252;59875;-64
2023/10/02 12:42:26;;;;;;;16.80;7.60;;;;;;;18.26;88.82;100212.14;109398;1253;72991;-69
2023/10/02 12:45:13;;;;;;;16.20;7.60;;;;;;;18.25;89.51;100213.64;109491;1252;66697;-65
2023/10/02 12:48:06;;;;;;;17.00;7.10;;;;;;;18.12;89.42;100209.85;109473;1253;73576;-63
2023/10/02 12:50:54;;;;;;;17.70;6.60;;;;;;;17.95;90.22;100207.99;109450;1253;59194;-64
2023/10/02 12:53:42;;;;;;;17.30;7.50;;;;;;;17.88;90.52;100206.26;109502;1252;60336;-65
2023/10/02 12:56:30;;;;;;;16.60;6.60;;;;;;;17.86;90.81;100206.28;109490;1252;71469;-63
2023/10/02 12:59:18;;;;;;;15.40;6.20;;;;;;;17.83;91.10;100205.46;109537;1252;68667;-63
2023/10/02 13:02:07;;;;;;;20.20;7.80;;;;;;;17.79;91.43;100195.55;109502;1252;71394;-63
2023/10/02 13:04:59;;;;;;;18.80;8.00;;;;;;;17.72;91.83;100192.67;109286;1252;218261;-64
2023/10/02 13:07:48;;;;;;;17.00;6.70;;;;;;;17.59;92.19;100188.45;109494;1252;58724;-64
2023/10/02 13:10:35;;;;;;;17.70;7.00;;;;;;;17.58;92.20;100185.05;109463;1252;72835;-64
2023/10/02 13:13:24;;;;;;;18.20;8.30;;;;;;;17.57;92.19;100183.71;109433;1252;66491;-66
2023/10/02 13:16:16;;;;;;;14.80;6.40;;;;;;;17.63;91.52;100175.99;109427;1252;70298;-66
2023/10/02 13:19:09;;;;;;;20.40;6.20;;;;;;;17.73;91.00;100173.91;109395;1252;59242;-63
2023/10/02 13:21:58;;;;;;;18.20;6.30;;;;;;;17.77;90.60;100172.92;109486;1252;59014;-63
2023/10/02 13:24:45;;;;;;;16.90;6.10;;;;;;;17.82;90.31;100169.67;109493;1252;73078;-64
2023/10/02 13:27:33;;;;;;;14.20;5.30;;;;;;;17.85;89.54;100167.39;109482;1252;68870;-64
2023/10/02 13:30:25;;;;;;;18.00;6.30;;;;;;;17.95;89.37;100169.86;109455;1252;72577;-64
2023/10/02 13:33:13;;;;;;;16.20;6.50;;;;;;;18.05;88.22;100174.45;109395;1253;59397;-65
2023/10/02 13:36:03;;;;;;;18.60;7.00;;;;;;;18.10;87.74;100172.91;109496;1251;59034;-62